Time;durP1;ratioP1;P1;durP2;ratioP2;P2;SDS_P1;SDS_P2;PMS_P1;PMS_P2;Temp;Humidity;BMP_temperature;BMP_pressure;BME280_temperature;BME280_humidity;BME280_pressure;Samples;Min_cycle;Max_cycle;Signal;HPM_P1;HPM_P2
2022/07/29 00:00:15;;;;;;;2.07;0.70;;;15.00;99.90;;;;;;6256860;22;20373;-89
2022/07/29 00:02:40;;;;;;;0.98;0.55;;;15.00;99.90;;;;;;6256643;22;20014;-88
2022/07/29 00:05:08;;;;;;;2.15;0.40;;;15.00;99.90;;;;;;6256724;22;20023;-87
2022/07/29 00:07:34;;;;;;;1.58;0.63;;;15.00;99.90;;;;;;6256903;22;20094;-89
2022/07/29 00:09:59;;;;;;;1.53;0.43;;;15.00;99.90;;;;;;6282622;22;20061;-87
2022/07/29 00:12:25;;;;;;;1.60;0.50;;;15.00;99.90;;;;;;6256650;22;20258;-87
2022/07/29 00:14:51;;;;;;;1.53;0.53;;;15.00;99.90;;;;;;6282276;22;20026;-88
2022/07/29 00:17:17;;;;;;;1.42;0.73;;;15.00;99.90;;;;;;6281788;22;20324;-87
2022/07/29 00:19:43;;;;;;;2.40;0.60;;;15.00;99.90;;;;;;6282381;22;20051;-89
2022/07/29 00:22:08;;;;;;;2.47;0.60;;;15.00;99.90;;;;;;6282189;22;20730;-86
2022/07/29 00:24:34;;;;;;;1.27;0.50;;;15.10;99.90;;;;;;6282185;22;20330;-87
2022/07/29 00:27:00;;;;;;;1.60;0.70;;;15.00;99.90;;;;;;6258074;22;20020;-90
2022/07/29 00:29:25;;;;;;;1.50;0.75;;;15.10;99.90;;;;;;6267652;22;20019;-87
2022/07/29 00:31:51;;;;;;;0.80;0.40;;;15.10;99.90;;;;;;6265466;22;20007;-88
2022/07/29 00:37:01;;;;;;;1.00;0.43;;;15.10;99.90;;;;;;6260002;22;20398;-90
2022/07/29 00:39:27;;;;;;;1.88;0.60;;;15.10;99.90;;;;;;6256732;22;20015;-89
2022/07/29 00:41:53;;;;;;;1.00;0.50;;;15.10;99.90;;;;;;6282113;22;20015;-90
2022/07/29 00:44:19;;;;;;;;;;;15.10;99.90;;;;;;6257028;22;20073;-89
2022/07/29 00:46:44;;;;;;;1.33;0.55;;;15.10;99.90;;;;;;6256578;22;19919;-89
2022/07/29 00:49:10;;;;;;;1.85;0.50;;;15.10;99.90;;;;;;6256592;22;20049;-89
2022/07/29 00:51:37;;;;;;;2.10;0.57;;;15.10;99.90;;;;;;6256496;22;20011;-89
2022/07/29 00:54:04;;;;;;;2.22;0.68;;;15.00;99.90;;;;;;6256476;22;20049;-88
2022/07/29 00:56:31;;;;;;;2.10;0.60;;;15.00;99.90;;;;;;6281627;22;20073;-88
2022/07/29 00:58:58;;;;;;;2.20;0.60;;;15.10;99.90;;;;;;6255992;22;20022;-89
2022/07/29 01:01:28;;;;;;;1.48;0.60;;;15.10;99.90;;;;;;6256602;22;20016;-91
2022/07/29 01:03:54;;;;;;;1.98;0.60;;;15.00;99.90;;;;;;6264677;22;20019;-87
2022/07/29 01:06:20;;;;;;;2.65;0.52;;;15.10;99.90;;;;;;6270500;22;20348;-88
2022/07/29 01:08:48;;;;;;;1.85;0.55;;;15.10;99.90;;;;;;6259512;22;20020;-90
2022/07/29 01:11:16;;;;;;;1.92;0.40;;;15.10;99.90;;;;;;6282141;22;20027;-90
2022/07/29 01:13:43;;;;;;;0.68;0.30;;;15.10;99.90;;;;;;6256265;22;20022;-93
2022/07/29 01:16:36;;;;;;;2.60;0.50;;;15.20;99.90;;;;;;6256113;22;20114;-91
2022/07/29 01:19:26;;;;;;;0.80;0.45;;;15.20;99.90;;;;;;6255962;22;20015;-90
2022/07/29 01:21:56;;;;;;;1.23;0.60;;;15.20;99.90;;;;;;6256006;22;20015;-91
2022/07/29 01:24:59;;;;;;;1.77;0.50;;;15.20;99.90;;;;;;6281739;22;20093;-92
2022/07/29 01:28:00;;;;;;;1.85;0.40;;;15.20;99.90;;;;;;6149516;22;20017;-92
2022/07/29 01:30:28;;;;;;;0.93;0.40;;;15.20;99.90;;;;;;6177240;22;20015;-90
2022/07/29 01:32:58;;;;;;;2.15;0.85;;;15.20;99.90;;;;;;6281656;22;20012;-93
2022/07/29 01:35:44;;;;;;;1.50;0.47;;;15.30;99.90;;;;;;6255796;22;20090;-93
2022/07/29 01:38:14;;;;;;;2.65;0.57;;;15.30;99.90;;;;;;6255633;22;20440;-89
2022/07/29 01:40:47;;;;;;;1.60;0.60;;;15.30;99.90;;;;;;6255575;22;20011;-91
2022/07/29 01:43:23;;;;;;;1.48;0.50;;;15.30;99.90;;;;;;6255796;22;20526;-91
2022/07/29 01:46:09;;;;;;;1.15;0.45;;;15.30;99.90;;;;;;6255551;22;20090;-91
2022/07/29 01:48:59;;;;;;;0.85;0.45;;;15.30;99.90;;;;;;6255643;22;20050;-86
2022/07/29 01:51:41;;;;;;;0.80;0.50;;;15.30;99.90;;;;;;6255412;22;20019;-88
2022/07/29 01:54:10;;;;;;;1.02;0.43;;;15.30;99.90;;;;;;6255589;22;20092;-88
2022/07/29 01:56:37;;;;;;;1.42;0.60;;;15.30;99.90;;;;;;6255578;22;20444;-85
2022/07/29 01:59:06;;;;;;;1.13;0.55;;;15.30;99.90;;;;;;6255277;22;20043;-86
2022/07/29 02:02:11;;;;;;;1.52;0.52;;;15.30;99.90;;;;;;6308006;22;20454;-88
2022/07/29 02:05:20;;;;;;;1.17;0.40;;;15.30;99.90;;;;;;6255392;22;20444;-86
2022/07/29 02:08:05;;;;;;;;;;;15.30;99.90;;;;;;6276862;22;20448;-86
2022/07/29 02:10:49;;;;;;;1.15;0.40;;;15.30;99.90;;;;;;6224445;22;19954;-88
2022/07/29 02:13:31;;;;;;;3.03;0.57;;;15.30;99.90;;;;;;6223445;22;20523;-89
2022/07/29 02:15:59;;;;;;;1.15;0.50;;;15.20;99.90;;;;;;6250405;22;20081;-89
2022/07/29 02:18:45;;;;;;;1.85;0.60;;;15.20;99.90;;;;;;6224439;22;20020;-87
2022/07/29 02:21:27;;;;;;;1.13;0.50;;;15.20;99.90;;;;;;6224986;22;20015;-86
2022/07/29 02:23:55;;;;;;;2.63;0.60;;;15.30;99.90;;;;;;6224625;22;20019;-86
2022/07/29 02:28:57;;;;;;;1.67;0.65;;;15.30;99.90;;;;;;6308003;22;20084;-87
2022/07/29 02:31:26;;;;;;;2.00;0.60;;;15.30;99.90;;;;;;6285604;22;20335;-87
2022/07/29 02:39:03;;;;;;;2.20;0.60;;;15.30;99.90;;;;;;6339191;22;20022;-91
2022/07/29 02:41:50;;;;;;;1.35;0.70;;;15.30;99.90;;;;;;6286252;22;20097;-87
2022/07/29 02:44:23;;;;;;;1.52;0.50;;;15.30;99.90;;;;;;6285738;22;20451;-88
2022/07/29 02:46:51;;;;;;;1.20;0.57;;;15.30;99.90;;;;;;6312025;22;20025;-87
2022/07/29 02:49:31;;;;;;;1.17;0.47;;;15.30;99.90;;;;;;6286180;22;20015;-86
2022/07/29 02:52:04;;;;;;;1.60;0.50;;;15.30;99.90;;;;;;6311934;22;20086;-90
2022/07/29 02:54:54;;;;;;;1.98;0.57;;;15.30;99.90;;;;;;6285772;22;20052;-89
2022/07/29 02:57:40;;;;;;;2.58;0.70;;;15.30;99.90;;;;;;6311101;22;20089;-88
2022/07/29 03:00:09;;;;;;;1.13;0.50;;;15.30;99.90;;;;;;6285553;22;20094;-86
2022/07/29 03:02:42;;;;;;;1.33;0.70;;;15.30;99.90;;;;;;6311448;22;20054;-88
2022/07/29 03:05:12;;;;;;;1.42;0.63;;;15.30;99.90;;;;;;6311160;22;20015;-87
2022/07/29 03:07:40;;;;;;;2.50;0.73;;;15.20;99.90;;;;;;6285771;22;20473;-89
2022/07/29 03:10:08;;;;;;;2.28;0.80;;;15.30;99.90;;;;;;6293096;22;20011;-85
2022/07/29 03:12:35;;;;;;;1.30;0.50;;;15.20;99.90;;;;;;6293149;22;20018;-86
2022/07/29 03:15:01;;;;;;;1.55;0.70;;;15.20;99.90;;;;;;6286451;22;20022;-89
2022/07/29 03:17:27;;;;;;;1.02;0.50;;;15.20;99.90;;;;;;6285434;22;20014;-87
2022/07/29 03:20:12;;;;;;;1.75;0.70;;;15.20;99.90;;;;;;6285626;22;20022;-86
2022/07/29 03:22:43;;;;;;;2.45;0.60;;;15.20;99.90;;;;;;6285173;22;20026;-86
2022/07/29 03:25:14;;;;;;;1.80;0.63;;;15.10;99.90;;;;;;6311248;22;20414;-87
2022/07/29 03:27:45;;;;;;;2.53;0.68;;;15.10;99.90;;;;;;6285351;22;20443;-87
2022/07/29 03:30:13;;;;;;;1.52;0.50;;;15.10;99.90;;;;;;6285064;22;20023;-86
2022/07/29 03:32:42;;;;;;;1.40;0.60;;;15.10;99.90;;;;;;6284980;22;20093;-87
2022/07/29 03:35:42;;;;;;;1.60;0.60;;;15.10;99.90;;;;;;6285533;22;20089;-89
2022/07/29 03:39:05;;;;;;;2.60;0.70;;;15.10;99.90;;;;;;6279693;22;20440;-88
2022/07/29 03:41:33;;;;;;;2.25;0.75;;;15.10;99.90;;;;;;6254884;22;20102;-86
2022/07/29 03:43:59;;;;;;;1.15;0.63;;;15.10;99.90;;;;;;6280274;22;20444;-89
2022/07/29 03:46:28;;;;;;;1.33;0.50;;;15.10;99.90;;;;;;6254433;22;20310;-85
2022/07/29 03:49:15;;;;;;;1.33;0.50;;;15.10;99.90;;;;;;6279932;22;20019;-87
2022/07/29 03:51:50;;;;;;;1.50;0.60;;;15.10;99.90;;;;;;6305770;22;20023;-86
2022/07/29 03:54:16;;;;;;;3.58;0.90;;;15.00;99.90;;;;;;6254166;22;20112;-86
2022/07/29 03:56:47;;;;;;;1.85;0.68;;;15.00;99.90;;;;;;6279957;22;20019;-86
2022/07/29 03:59:14;;;;;;;1.88;0.65;;;15.00;99.90;;;;;;6307166;22;20432;-86
2022/07/29 04:01:42;;;;;;;1.88;0.70;;;15.00;99.90;;;;;;6254167;22;20023;-86
2022/07/29 04:04:07;;;;;;;1.55;0.50;;;15.00;99.90;;;;;;6254376;22;20011;-87
2022/07/29 04:06:48;;;;;;;1.83;0.70;;;15.00;99.90;;;;;;6281016;22;20074;-88
2022/07/29 04:09:14;;;;;;;1.23;0.50;;;15.00;99.90;;;;;;6255714;22;20019;-90
2022/07/29 04:11:41;;;;;;;2.10;0.80;;;15.10;99.90;;;;;;6256458;22;20018;-88
2022/07/29 04:14:21;;;;;;;;;;;15.00;99.90;;;;;;6257028;22;20011;-86
2022/07/29 04:16:47;;;;;;;0.95;0.40;;;15.00;99.90;;;;;;6256064;22;20335;-86
2022/07/29 04:19:13;;;;;;;1.33;0.57;;;15.10;99.90;;;;;;6256171;22;20069;-88
2022/07/29 04:21:40;;;;;;;1.33;0.57;;;15.10;99.90;;;;;;6256462;22;20065;-89
2022/07/29 04:24:06;;;;;;;1.15;0.50;;;15.10;99.90;;;;;;6256135;22;20015;-87
2022/07/29 04:26:46;;;;;;;2.45;0.80;;;15.10;99.90;;;;;;6256645;22;20054;-89
2022/07/29 04:33:46;;;;;;;1.27;0.55;;;15.10;99.90;;;;;;6309290;22;20069;-87
2022/07/29 04:36:15;;;;;;;2.22;0.57;;;15.10;99.90;;;;;;6280454;22;20076;-87
2022/07/29 04:38:41;;;;;;;1.50;0.65;;;15.10;99.90;;;;;;6260328;22;20518;-88
2022/07/29 04:41:08;;;;;;;1.67;0.52;;;15.10;99.90;;;;;;6312513;22;20023;-87
2022/07/29 04:43:46;;;;;;;1.15;0.60;;;15.10;99.90;;;;;;6312440;22;20022;-87
2022/07/29 04:46:29;;;;;;;2.08;0.50;;;15.10;99.90;;;;;;6286599;22;20023;-86
2022/07/29 04:48:54;;;;;;;1.88;0.50;;;15.10;99.90;;;;;;6286429;22;20018;-88
2022/07/29 04:54:06;;;;;;;1.58;0.60;;;15.10;99.90;;;;;;6339289;22;20317;-89
2022/07/29 04:56:37;;;;;;;2.70;0.70;;;15.20;99.90;;;;;;6312253;22;20019;-88
2022/07/29 04:59:09;;;;;;;1.20;0.60;;;15.20;99.90;;;;;;6286417;22;20010;-87
2022/07/29 05:02:03;;;;;;;1.63;0.60;;;15.10;99.90;;;;;;6289770;22;20019;-88
2022/07/29 05:04:29;;;;;;;2.78;0.57;;;15.20;99.90;;;;;;6286217;22;20018;-90
2022/07/29 05:09:44;;;;;;;1.67;0.75;;;15.20;99.90;;;;;;6312473;22;20022;-90
2022/07/29 05:12:10;;;;;;;2.22;0.80;;;15.20;99.90;;;;;;6316481;22;20025;-86
2022/07/29 05:14:36;;;;;;;1.90;0.70;;;15.20;99.90;;;;;;6295892;22;20053;-88
2022/07/29 05:17:47;;;;;;;1.45;0.60;;;15.20;99.90;;;;;;6287723;22;20444;-87
2022/07/29 05:26:46;;;;;;;2.17;0.60;;;15.20;99.90;;;;;;6308220;22;20102;-88
2022/07/29 05:29:12;;;;;;;1.77;0.60;;;15.30;99.90;;;;;;6255616;22;20058;-91
2022/07/29 05:31:53;;;;;;;1.50;0.70;;;15.30;99.90;;;;;;6255945;22;20046;-88
2022/07/29 05:34:34;;;;;;;1.65;0.70;;;15.30;99.90;;;;;;6255619;22;20015;-89
2022/07/29 05:37:00;;;;;;;1.17;0.60;;;15.40;99.90;;;;;;6255491;22;20095;-87
2022/07/29 05:39:25;;;;;;;1.87;0.63;;;15.30;99.90;;;;;;6255819;22;20051;-89
2022/07/29 05:41:51;;;;;;;3.03;0.83;;;15.40;99.90;;;;;;6281571;22;20071;-88
2022/07/29 05:44:17;;;;;;;2.70;1.70;;;15.40;99.90;;;;;;6308716;22;20017;-94
2022/07/29 05:46:42;;;;;;;1.43;0.60;;;15.50;99.90;;;;;;6281228;22;20017;-89
2022/07/29 05:49:08;;;;;;;4.37;1.00;;;15.50;99.90;;;;;;6313137;22;20245;-94
2022/07/29 05:52:14;;;;;;;2.60;0.60;;;15.50;99.90;;;;;;6281958;22;20021;-89
2022/07/29 05:57:44;;;;;;;2.03;0.50;;;15.70;99.90;;;;;;6280448;22;20015;-90
2022/07/29 06:00:34;;;;;;;1.63;0.50;;;15.70;99.90;;;;;;6270877;22;20094;-89
2022/07/29 06:02:59;;;;;;;2.92;0.63;;;15.70;99.90;;;;;;6308427;22;20047;-90
2022/07/29 06:05:34;;;;;;;3.30;0.60;;;15.70;99.90;;;;;;6256865;22;20015;-89
2022/07/29 06:08:00;;;;;;;1.98;0.77;;;15.80;99.90;;;;;;6255755;22;20068;-89
2022/07/29 06:10:26;;;;;;;1.60;0.90;;;15.80;99.90;;;;;;6255203;22;20053;-91
2022/07/29 06:12:52;;;;;;;1.67;0.52;;;15.80;99.90;;;;;;6255385;22;20018;-88
2022/07/29 06:15:18;;;;;;;0.90;0.40;;;15.80;99.90;;;;;;6281084;22;20008;-89
2022/07/29 06:17:43;;;;;;;1.83;0.70;;;15.90;99.90;;;;;;6255095;22;20391;-89
2022/07/29 06:20:10;;;;;;;1.60;0.60;;;15.90;99.90;;;;;;6281090;22;20467;-91
2022/07/29 06:22:36;;;;;;;2.67;0.60;;;15.90;99.90;;;;;;6255854;22;20015;-90
2022/07/29 06:25:02;;;;;;;1.88;0.70;;;15.90;99.90;;;;;;6255651;22;20016;-89
2022/07/29 06:27:28;;;;;;;2.88;0.90;;;16.00;99.90;;;;;;6280783;22;20022;-88
2022/07/29 06:29:54;;;;;;;2.13;0.70;;;16.00;99.90;;;;;;6255741;22;20093;-91
2022/07/29 06:32:19;;;;;;;3.30;0.87;;;16.00;99.90;;;;;;6255669;22;20419;-89
2022/07/29 06:34:45;;;;;;;2.00;0.80;;;16.00;99.90;;;;;;6254886;22;20021;-88
2022/07/29 06:37:11;;;;;;;2.07;0.67;;;16.00;99.90;;;;;;6280578;22;20352;-89
2022/07/29 06:39:37;;;;;;;2.40;0.80;;;16.00;99.90;;;;;;6255104;22;20270;-89
2022/07/29 06:42:06;;;;;;;1.70;0.60;;;16.10;99.90;;;;;;6254669;22;20014;-90
2022/07/29 06:44:35;;;;;;;1.60;0.60;;;16.10;99.90;;;;;;6254950;22;20088;-90
2022/07/29 06:47:01;;;;;;;2.10;0.70;;;16.20;99.90;;;;;;6280591;22;20057;-88
2022/07/29 06:49:27;;;;;;;2.25;0.68;;;16.20;99.90;;;;;;6254829;22;20015;-90
2022/07/29 06:51:54;;;;;;;3.65;0.80;;;16.30;99.90;;;;;;6255044;22;20015;-90
2022/07/29 06:54:20;;;;;;;3.05;0.60;;;16.40;99.90;;;;;;6255132;22;20395;-90
2022/07/29 06:56:45;;;;;;;1.17;0.60;;;16.50;99.90;;;;;;6255091;22;20011;-90
2022/07/29 06:59:12;;;;;;;1.83;0.70;;;16.60;99.90;;;;;;6280243;22;20019;-89
2022/07/29 07:01:40;;;;;;;3.50;0.70;;;16.70;99.90;;;;;;6254805;22;20322;-88
2022/07/29 07:04:08;;;;;;;2.15;0.70;;;16.80;99.90;;;;;;6254826;22;20015;-88
2022/07/29 07:06:34;;;;;;;2.38;0.70;;;16.80;99.90;;;;;;6254820;22;20050;-89
2022/07/29 07:09:00;;;;;;;2.28;0.73;;;16.80;99.90;;;;;;6280461;22;20115;-89
2022/07/29 07:11:27;;;;;;;1.63;0.70;;;16.80;99.90;;;;;;6307718;22;20015;-88
2022/07/29 07:13:53;;;;;;;2.25;0.60;;;16.90;99.90;;;;;;6256289;22;20015;-91
2022/07/29 07:16:19;;;;;;;1.85;0.70;;;16.90;99.90;;;;;;6260987;22;20011;-88
2022/07/29 07:18:45;;;;;;;1.43;0.67;;;16.90;99.90;;;;;;6262145;22;20459;-95
2022/07/29 07:21:11;;;;;;;3.80;1.38;;;17.00;99.90;;;;;;6254868;22;20466;-88
2022/07/29 07:23:37;;;;;;;2.15;0.60;;;17.10;99.90;;;;;;6280424;22;20068;-89
2022/07/29 07:26:04;;;;;;;2.70;1.35;;;17.10;99.90;;;;;;6254551;22;20391;-91
2022/07/29 07:28:30;;;;;;;1.30;0.60;;;17.20;99.90;;;;;;6254888;22;20440;-91
2022/07/29 07:30:56;;;;;;;1.88;0.50;;;17.20;99.90;;;;;;6254797;22;20015;-88
2022/07/29 07:33:21;;;;;;;2.27;0.63;;;17.20;99.90;;;;;;6254886;22;20011;-90
2022/07/29 07:35:47;;;;;;;2.35;0.60;;;17.10;99.90;;;;;;6255282;22;20242;-92
2022/07/29 07:38:13;;;;;;;1.67;0.70;;;17.10;99.90;;;;;;6254850;22;20026;-89
2022/07/29 07:40:39;;;;;;;1.65;0.68;;;17.10;99.90;;;;;;6255034;22;20011;-92
2022/07/29 07:43:04;;;;;;;1.42;0.60;;;17.10;99.90;;;;;;6281018;22;20019;-89
2022/07/29 07:45:32;;;;;;;1.92;0.80;;;17.10;99.90;;;;;;6308004;22;20025;-91
2022/07/29 07:47:58;;;;;;;2.92;0.73;;;17.10;99.90;;;;;;6257254;22;20015;-89
2022/07/29 07:50:24;;;;;;;2.30;0.70;;;17.10;99.90;;;;;;6314498;22;20011;-89
2022/07/29 07:52:57;;;;;;;4.07;0.95;;;17.10;99.90;;;;;;6266182;22;20050;-92
2022/07/29 07:55:32;;;;;;;2.60;0.80;;;17.10;99.90;;;;;;6285789;22;20047;-91
2022/07/29 07:57:58;;;;;;;3.22;1.00;;;17.10;99.90;;;;;;6268388;22;20022;-87
2022/07/29 08:00:23;;;;;;;4.32;0.50;;;17.20;99.90;;;;;;6288262;22;20015;-90
2022/07/29 08:02:49;;;;;;;1.23;0.63;;;17.10;99.90;;;;;;6282747;22;20027;-92
2022/07/29 08:05:18;;;;;;;1.92;0.73;;;17.20;99.90;;;;;;6256781;22;20252;-89
2022/07/29 08:07:46;;;;;;;2.30;0.65;;;17.20;99.90;;;;;;6256780;22;20019;-91
2022/07/29 08:10:13;;;;;;;2.08;0.80;;;17.20;99.90;;;;;;6282288;22;20022;-90
2022/07/29 08:12:39;;;;;;;3.47;0.80;;;17.20;99.90;;;;;;6282180;22;20143;-88
2022/07/29 08:15:07;;;;;;;1.88;0.68;;;17.30;99.90;;;;;;6256715;22;20011;-91
2022/07/29 08:17:48;;;;;;;3.15;0.90;;;17.30;99.90;;;;;;6282313;22;20026;-89
2022/07/29 08:20:14;;;;;;;2.15;0.70;;;17.40;99.90;;;;;;6256587;22;20094;-87
2022/07/29 08:23:04;;;;;;;3.13;0.75;;;17.40;99.90;;;;;;6281770;22;20047;-91
2022/07/29 08:25:39;;;;;;;1.30;0.60;;;17.50;99.90;;;;;;6256808;22;20054;-87
2022/07/29 08:28:05;;;;;;;2.20;1.13;;;17.50;99.90;;;;;;6280537;22;20038;-88
2022/07/29 08:30:35;;;;;;;2.38;0.70;;;17.60;99.90;;;;;;6282097;22;20343;-89
2022/07/29 08:33:47;;;;;;;3.60;0.90;;;17.60;99.90;;;;;;6283327;22;20077;-89
2022/07/29 08:36:33;;;;;;;1.80;0.90;;;17.70;99.90;;;;;;6257142;22;20387;-89
2022/07/29 08:50:18;;;;;;;1.88;0.73;;;18.00;99.90;;;;;;6310818;22;20031;-93
2022/07/29 09:56:15;;;;;;;2.65;0.90;;;18.10;99.90;;;;;;6298793;22;20523;-91
2022/07/29 10:08:12;;;;;;;;;;;;;;;;;;;;;
2022/07/29 10:10:42;;;;;;;3.25;1.20;;;18.30;99.90;;;;;;6251088;22;20453;-96
2022/07/29 10:13:48;;;;;;;2.13;1.00;;;18.30;99.90;;;;;;6225338;22;20047;-94
2022/07/29 10:47:25;;;;;;;3.50;1.17;;;18.50;99.90;;;;;;6307705;22;20015;-95
2022/07/29 10:50:28;;;;;;;2.15;1.00;;;18.60;99.90;;;;;;6255253;22;20360;-91
2022/07/29 10:52:57;;;;;;;3.03;1.10;;;18.60;99.90;;;;;;6255541;22;20020;-92
2022/07/29 10:55:39;;;;;;;3.83;1.00;;;18.60;99.90;;;;;;6255585;22;20016;-92
2022/07/29 10:58:20;;;;;;;3.13;1.20;;;18.60;99.90;;;;;;6281082;22;20041;-91
2022/07/29 11:00:47;;;;;;;2.65;1.30;;;18.60;99.90;;;;;;6255884;22;20049;-91
2022/07/29 11:03:46;;;;;;;3.15;1.52;;;18.60;99.90;;;;;;6255595;22;20011;-90
2022/07/29 11:10:35;;;;;;;3.55;1.30;;;18.70;99.90;;;;;;6308769;22;20349;-93
2022/07/29 11:27:22;;;;;;;3.53;1.70;;;19.10;99.90;;;;;;6307023;22;20023;-92
2022/07/29 11:36:13;;;;;;;3.22;1.20;;;19.20;99.90;;;;;;6277347;22;20016;-93
2022/07/29 11:39:46;;;;;;;3.15;1.40;;;19.20;99.90;;;;;;6225101;22;20024;-91
2022/07/29 11:42:24;;;;;;;3.35;1.40;;;19.30;99.90;;;;;;6250047;22;20019;-93
2022/07/29 11:45:05;;;;;;;4.70;1.50;;;19.30;99.90;;;;;;6225157;22;20019;-90
2022/07/29 11:47:31;;;;;;;4.60;1.40;;;19.30;99.90;;;;;;6224945;22;20445;-92
2022/07/29 11:49:59;;;;;;;3.63;1.40;;;19.40;99.90;;;;;;6225041;22;20020;-92
2022/07/29 11:52:33;;;;;;;4.88;1.95;;;19.50;99.90;;;;;;6224829;22;20007;-92
2022/07/29 11:55:02;;;;;;;3.47;1.60;;;19.60;99.90;;;;;;6225189;22;20020;-96
2022/07/29 11:57:29;;;;;;;3.88;1.65;;;19.60;99.90;;;;;;6250442;22;20054;-95
2022/07/29 11:59:55;;;;;;;;;;;19.70;99.90;;;;;;6225058;22;20016;-90
2022/07/29 12:02:24;;;;;;;3.55;1.40;;;19.80;99.90;;;;;;6223408;22;19961;-91
2022/07/29 12:20:45;;;;;;;2.63;1.10;;;20.50;99.90;;;;;;6309487;22;20351;-92
2022/07/29 13:53:41;;;;;;;2.95;0.88;;;22.70;97.90;;;;;;6307794;22;20027;-91
2022/07/29 15:09:28;;;;;;;1.92;0.73;;;23.90;92.00;;;;;;6305632;22;20469;-92
2022/07/29 15:43:17;;;;;;;1.60;0.68;;;23.30;91.90;;;;;;6308879;22;20020;-91
2022/07/29 16:07:04;;;;;;;2.80;0.80;;;23.00;92.50;;;;;;6309506;22;20023;-90
2022/07/29 16:09:30;;;;;;;;;;;23.00;92.70;;;;;;6310661;22;20023;-87
2022/07/29 16:12:14;;;;;;;2.53;1.10;;;23.00;92.80;;;;;;6302548;22;19914;-89
2022/07/29 16:27:40;;;;;;;1.70;0.90;;;22.80;93.10;;;;;;6310109;22;20019;-93
2022/07/29 18:52:36;;;;;;;3.58;1.38;;;21.00;96.30;;;;;;6299210;22;20027;-89
2022/07/29 18:58:05;;;;;;;3.35;1.50;;;20.90;96.60;;;;;;6306054;22;20019;-89
2022/07/29 19:01:01;;;;;;;3.60;1.50;;;20.80;96.60;;;;;;6287151;22;20080;-90
2022/07/29 19:03:27;;;;;;;3.45;1.85;;;20.70;96.80;;;;;;6294526;22;20019;-93
2022/07/29 19:05:53;;;;;;;3.25;1.63;;;20.70;96.70;;;;;;6284896;22;20050;-94
2022/07/29 19:08:38;;;;;;;2.85;1.40;;;20.60;96.70;;;;;;6285764;22;20021;-95
2022/07/29 19:11:11;;;;;;;2.85;1.30;;;20.50;96.80;;;;;;6285663;22;20015;-93
2022/07/29 19:13:40;;;;;;;4.43;1.20;;;20.40;96.90;;;;;;6285020;22;20019;-89
2022/07/29 19:23:52;;;;;;;3.30;1.35;;;20.20;97.30;;;;;;6307592;22;20019;-89
2022/07/29 19:26:19;;;;;;;3.72;1.50;;;20.10;97.40;;;;;;6225063;22;20330;-90
2022/07/29 19:28:46;;;;;;;3.35;1.50;;;20.10;97.40;;;;;;6223680;22;20061;-90
2022/07/29 19:31:11;;;;;;;3.85;1.30;;;20.00;97.60;;;;;;6249564;22;20095;-91
2022/07/29 19:33:37;;;;;;;4.78;1.58;;;20.00;97.60;;;;;;6224687;22;20479;-89
2022/07/29 19:36:03;;;;;;;5.47;1.65;;;19.90;97.70;;;;;;6248589;22;20023;-91
2022/07/29 19:38:28;;;;;;;4.72;1.80;;;19.90;97.80;;;;;;6227272;22;20345;-90
2022/07/29 19:41:16;;;;;;;5.07;1.77;;;19.80;97.80;;;;;;6280864;22;20020;-89
2022/07/29 19:44:19;;;;;;;4.55;2.03;;;19.80;98.10;;;;;;6239018;22;20042;-90
2022/07/29 19:46:45;;;;;;;3.03;1.38;;;19.70;98.30;;;;;;6226457;22;20073;-90
2022/07/29 19:49:12;;;;;;;3.13;1.55;;;19.60;98.20;;;;;;6226851;22;20016;-88
2022/07/29 19:51:38;;;;;;;2.78;1.30;;;19.60;98.30;;;;;;6226643;22;20019;-89
2022/07/29 19:54:05;;;;;;;5.55;1.83;;;19.60;98.50;;;;;;6251893;22;20090;-90
2022/07/29 19:56:30;;;;;;;5.45;1.63;;;19.50;98.50;;;;;;6226472;22;20019;-89
2022/07/29 20:04:15;;;;;;;5.13;2.10;;;19.40;98.90;;;;;;6277925;22;20027;-91
2022/07/29 20:06:41;;;;;;;4.57;2.50;;;19.40;98.90;;;;;;6251971;22;20019;-94
2022/07/29 20:09:07;;;;;;;5.25;2.58;;;19.40;98.80;;;;;;6225846;22;20047;-91
2022/07/29 20:11:35;;;;;;;4.88;2.60;;;19.40;99.00;;;;;;6226754;22;20070;-90
2022/07/29 20:14:04;;;;;;;6.68;2.33;;;19.30;99.00;;;;;;6226231;22;20438;-90
2022/07/29 20:16:31;;;;;;;5.30;2.88;;;19.30;99.10;;;;;;6226618;22;20058;-93
2022/07/29 20:18:57;;;;;;;4.93;2.70;;;19.30;99.30;;;;;;6254306;22;20095;-89
2022/07/29 20:21:24;;;;;;;4.10;2.65;;;19.30;99.40;;;;;;6237289;22;20023;-90
2022/07/29 20:23:50;;;;;;;4.22;2.47;;;19.20;99.30;;;;;;6252075;22;20468;-91
2022/07/29 20:26:16;;;;;;;4.57;2.72;;;19.20;99.30;;;;;;6226347;22;20012;-90
2022/07/29 20:29:25;;;;;;;4.60;2.42;;;19.20;99.10;;;;;;6253915;22;20016;-91
2022/07/29 20:32:23;;;;;;;4.97;2.33;;;19.10;99.30;;;;;;6254592;22;20038;-91
2022/07/29 20:35:08;;;;;;;4.73;2.70;;;19.10;99.50;;;;;;6227245;22;20045;-89
2022/07/29 20:37:34;;;;;;;4.63;2.75;;;19.00;99.60;;;;;;6226318;22;20019;-91
2022/07/29 20:40:01;;;;;;;5.72;3.05;;;19.00;99.60;;;;;;6251609;22;20023;-90
2022/07/29 20:42:27;;;;;;;5.45;2.70;;;18.90;99.70;;;;;;6226147;22;20070;-91
2022/07/29 20:45:18;;;;;;;4.80;2.47;;;18.90;99.80;;;;;;6226306;22;20019;-91
2022/07/29 20:47:44;;;;;;;4.72;2.60;;;18.80;99.90;;;;;;6226436;22;20015;-92
2022/07/29 20:50:10;;;;;;;4.25;2.40;;;18.80;99.90;;;;;;6225711;22;20016;-90
2022/07/29 20:52:42;;;;;;;5.78;2.60;;;18.70;99.90;;;;;;6225964;22;20024;-90
2022/07/29 20:55:09;;;;;;;5.10;2.53;;;18.60;99.90;;;;;;6226204;22;20027;-89
2022/07/29 20:57:35;;;;;;;3.78;2.13;;;18.60;99.90;;;;;;6225971;22;20007;-90
2022/07/29 21:00:01;;;;;;;4.15;2.00;;;18.60;99.90;;;;;;6225710;22;20507;-90
2022/07/29 21:02:26;;;;;;;4.50;2.17;;;18.50;99.90;;;;;;6226437;22;20012;-92
2022/07/29 21:04:52;;;;;;;3.83;1.83;;;18.50;99.90;;;;;;6251358;22;20011;-90
2022/07/29 21:07:18;;;;;;;3.75;2.08;;;18.50;99.90;;;;;;6225757;22;20073;-90
2022/07/29 21:09:44;;;;;;;4.03;2.13;;;18.50;99.90;;;;;;6226568;22;20126;-93
2022/07/29 21:12:09;;;;;;;4.28;2.20;;;18.50;99.90;;;;;;6225717;22;20023;-89
2022/07/29 21:17:06;;;;;;;4.63;2.50;;;18.40;99.90;;;;;;6250924;22;20020;-90
2022/07/29 21:19:32;;;;;;;3.58;2.05;;;18.30;99.90;;;;;;6250965;22;20023;-91
2022/07/29 21:21:58;;;;;;;3.75;2.00;;;18.30;99.90;;;;;;6225939;22;20020;-92
2022/07/29 21:24:24;;;;;;;4.65;2.03;;;18.20;99.90;;;;;;6225699;22;20034;-91
2022/07/29 21:26:49;;;;;;;6.25;2.60;;;18.20;99.90;;;;;;6225636;22;20369;-93
2022/07/29 21:29:15;;;;;;;5.03;1.90;;;18.20;99.90;;;;;;6223241;22;20101;-89
2022/07/29 21:31:41;;;;;;;4.72;2.28;;;18.10;99.90;;;;;;6248979;22;20011;-91
2022/07/29 21:34:07;;;;;;;4.22;1.88;;;18.00;99.90;;;;;;6225586;22;20115;-92
2022/07/29 21:36:33;;;;;;;5.70;2.53;;;18.00;99.90;;;;;;6276881;22;20022;-91
2022/07/29 21:38:59;;;;;;;6.53;2.55;;;17.90;99.90;;;;;;6249960;22;20024;-93
2022/07/29 21:41:25;;;;;;;;;;;17.90;99.90;;;;;;6250953;22;20016;-91
2022/07/29 21:43:51;;;;;;;5.20;2.53;;;17.90;99.90;;;;;;6224372;22;19930;-89
2022/07/29 21:46:17;;;;;;;5.80;2.42;;;17.80;99.90;;;;;;6225469;22;20318;-89
2022/07/29 21:48:42;;;;;;;4.97;2.50;;;17.80;99.90;;;;;;6225298;22;20035;-91
2022/07/29 21:51:08;;;;;;;4.50;2.50;;;17.70;99.90;;;;;;6225216;22;20055;-90
2022/07/29 21:53:34;;;;;;;5.20;2.08;;;17.70;99.90;;;;;;6225174;22;20016;-91
2022/07/29 21:55:59;;;;;;;4.93;2.40;;;17.70;99.90;;;;;;6225388;22;20476;-93
2022/07/29 21:58:25;;;;;;;4.43;2.53;;;17.70;99.90;;;;;;6250396;22;20018;-89
2022/07/29 22:00:51;;;;;;;4.43;2.03;;;17.60;99.90;;;;;;6224935;22;20026;-94
2022/07/29 22:03:17;;;;;;;5.32;2.45;;;17.60;99.90;;;;;;6225020;22;20345;-89
2022/07/29 22:05:43;;;;;;;6.20;2.50;;;17.60;99.90;;;;;;6224747;22;20026;-92
2022/07/29 22:08:08;;;;;;;4.63;2.65;;;17.60;99.90;;;;;;6250355;22;20461;-90
2022/07/29 22:10:34;;;;;;;5.22;2.80;;;17.50;99.90;;;;;;6225153;22;20023;-88
2022/07/29 22:13:01;;;;;;;5.55;2.33;;;17.40;99.90;;;;;;6225607;22;20020;-88
2022/07/29 22:15:28;;;;;;;4.07;2.28;;;17.40;99.90;;;;;;6224555;22;20015;-90
2022/07/29 22:17:54;;;;;;;4.47;2.42;;;17.40;99.90;;;;;;6223662;22;20057;-91
2022/07/29 22:20:20;;;;;;;3.50;1.75;;;17.40;99.90;;;;;;6248705;22;20341;-92
2022/07/29 22:22:46;;;;;;;5.63;2.33;;;17.40;99.90;;;;;;6225174;22;20019;-91
2022/07/29 22:25:12;;;;;;;5.53;2.42;;;17.40;99.90;;;;;;6250276;22;20020;-92
2022/07/29 22:27:38;;;;;;;6.00;2.47;;;17.40;99.90;;;;;;6224967;22;20038;-92
2022/07/29 22:30:06;;;;;;;4.75;2.20;;;17.40;99.90;;;;;;6225389;22;20448;-89
2022/07/29 22:32:32;;;;;;;3.97;2.10;;;17.30;99.90;;;;;;6203009;22;20019;-92
2022/07/29 22:34:58;;;;;;;5.00;2.55;;;17.30;99.90;;;;;;6235688;22;20062;-90
2022/07/29 22:37:23;;;;;;;5.38;2.75;;;17.30;99.90;;;;;;6250105;22;20016;-89
2022/07/29 22:39:49;;;;;;;5.10;2.30;;;17.30;99.90;;;;;;6277226;22;20016;-89
2022/07/29 22:42:15;;;;;;;4.00;2.28;;;17.20;99.90;;;;;;6225250;22;20015;-92
2022/07/29 22:44:40;;;;;;;5.72;2.60;;;17.20;99.90;;;;;;6224765;22;20020;-91
2022/07/29 22:47:06;;;;;;;5.15;2.22;;;17.20;99.90;;;;;;6225085;22;20022;-91